Time;durP1;ratioP1;P1;durP2;ratioP2;P2;SDS_P1;SDS_P2;PMS_P1;PMS_P2;Temp;Humidity;BMP_temperature;BMP_pressure;BME280_temperature;BME280_humidity;BME280_pressure;Samples;Min_cycle;Max_cycle;Signal;HPM_P1;HPM_P2
2022/06/03 00:01:28;;;;;;;;;;;11.30;99.90;;;;;;5026734;28;19934;-75
2022/06/03 00:03:57;;;;;;;;;;;11.20;99.90;;;;;;5028492;28;19928;-75
2022/06/03 00:06:22;;;;;;;;;;;11.20;99.90;;;;;;5026188;28;20006;-75
2022/06/03 00:09:07;;;;;;;;;;;11.10;99.90;;;;;;5008061;28;20117;-76
2022/06/03 00:11:39;;;;;;;;;;;11.10;99.90;;;;;;5009078;28;19929;-76
2022/06/03 00:14:14;;;;;;;;;;;11.10;99.90;;;;;;5008826;28;20052;-75
2022/06/03 00:16:52;;;;;;;;;;;10.90;99.90;;;;;;5009903;28;19933;-75
2022/06/03 00:19:40;;;;;;;;;;;10.80;99.90;;;;;;5024018;28;19998;-76
2022/06/03 00:22:16;;;;;;;;;;;10.90;99.90;;;;;;5027046;28;19935;-76
2022/06/03 00:25:04;;;;;;;;;;;10.90;99.90;;;;;;5026324;28;20389;-76
2022/06/03 00:27:45;;;;;;;;;;;10.80;99.90;;;;;;5003238;28;19929;-76
2022/06/03 00:30:35;;;;;;;;;;;10.80;99.90;;;;;;4988257;28;19936;-76
2022/06/03 00:33:20;;;;;;;;;;;10.80;99.90;;;;;;4989768;28;19972;-76
2022/06/03 00:35:54;;;;;;;;;;;10.90;99.90;;;;;;5006790;28;20011;-76
2022/06/03 00:38:29;;;;;;;;;;;10.80;99.90;;;;;;5007174;28;19952;-76
2022/06/03 00:41:04;;;;;;;;;;;10.90;99.90;;;;;;4973063;28;19933;-76
2022/06/03 00:43:42;;;;;;;;;;;10.80;99.90;;;;;;4972324;28;20028;-76
2022/06/03 00:46:08;;;;;;;;;;;10.70;99.90;;;;;;5004802;28;20810;-76
2022/06/03 00:48:47;;;;;;;;;;;10.70;99.90;;;;;;4987955;28;19925;-76
2022/06/03 00:51:31;;;;;;;;;;;10.70;99.90;;;;;;4987384;28;19940;-75
2022/06/03 00:53:57;;;;;;;;;;;10.70;99.90;;;;;;4988777;28;20745;-75
2022/06/03 00:56:41;;;;;;;;;;;10.60;99.90;;;;;;5006205;28;19932;-76
2022/06/03 00:59:14;;;;;;;;;;;10.60;99.90;;;;;;5004991;28;19932;-75
2022/06/03 01:01:59;;;;;;;;;;;10.70;99.90;;;;;;4985375;28;20298;-76
2022/06/03 01:04:30;;;;;;;;;;;10.60;99.90;;;;;;4969094;28;19929;-76
2022/06/03 01:07:05;;;;;;;;;;;10.60;99.90;;;;;;5021564;28;19929;-75
2022/06/03 01:09:46;;;;;;;;;;;10.50;99.90;;;;;;5021940;28;19940;-75
2022/06/03 01:12:17;;;;;;;;;;;10.50;99.90;;;;;;4988611;28;19964;-75
2022/06/03 01:14:49;;;;;;;;;;;10.60;99.90;;;;;;5007273;28;19929;-75
2022/06/03 01:17:33;;;;;;;;;;;10.50;99.90;;;;;;5020131;28;19936;-75
2022/06/03 01:20:17;;;;;;;;;;;10.40;99.90;;;;;;5005968;28;19936;-75
2022/06/03 01:23:03;;;;;;;;;;;10.50;99.90;;;;;;5005923;28;20421;-75
2022/06/03 01:25:31;;;;;;;;;;;10.50;99.90;;;;;;5006388;28;19953;-75
2022/06/03 01:28:16;;;;;;;;;;;10.30;99.90;;;;;;5008938;28;19929;-75
2022/06/03 01:31:07;;;;;;;;;;;10.30;99.90;;;;;;5006806;28;20039;-75
2022/06/03 01:34:05;;;;;;;;;;;10.40;99.90;;;;;;5010567;28;19929;-76
2022/06/03 01:36:40;;;;;;;;;;;10.40;99.90;;;;;;4960852;28;19939;-76
2022/06/03 01:39:08;;;;;;;;;;;10.30;99.90;;;;;;5007418;28;19929;-75
2022/06/03 01:41:52;;;;;;;;;;;10.40;99.90;;;;;;5005427;28;20027;-75
2022/06/03 01:44:27;;;;;;;;;;;10.30;99.90;;;;;;5006856;28;19994;-75
2022/06/03 01:47:11;;;;;;;;;;;10.30;99.90;;;;;;5005891;28;19933;-75
2022/06/03 01:49:43;;;;;;;;;;;10.30;99.90;;;;;;5007295;28;19936;-76
2022/06/03 01:52:27;;;;;;;;;;;10.30;99.90;;;;;;5005666;28;19929;-76
2022/06/03 01:55:11;;;;;;;;;;;10.40;99.90;;;;;;5007038;28;20036;-75
2022/06/03 01:57:52;;;;;;;;;;;10.20;99.90;;;;;;4990527;28;19932;-75
2022/06/03 02:00:38;;;;;;;;;;;10.20;99.90;;;;;;5004458;28;20344;-75
2022/06/03 02:03:16;;;;;;;;;;;10.20;99.90;;;;;;5005936;28;20488;-76
2022/06/03 02:05:44;;;;;;;;;;;10.20;99.90;;;;;;5008739;28;20751;-75
2022/06/03 02:08:25;;;;;;;;;;;10.20;99.90;;;;;;5004147;28;19933;-75
2022/06/03 02:11:11;;;;;;;;;;;10.20;99.90;;;;;;4991390;28;19936;-75
2022/06/03 02:13:42;;;;;;;;;;;10.20;99.90;;;;;;4993327;28;19929;-75
2022/06/03 02:16:08;;;;;;;;;;;10.00;99.90;;;;;;4990675;28;19995;-75
2022/06/03 02:18:33;;;;;;;;;;;10.20;99.90;;;;;;5010221;28;20968;-75
2022/06/03 02:21:05;;;;;;;;;;;10.10;99.90;;;;;;5006324;28;19936;-76
2022/06/03 02:23:31;;;;;;;;;;;10.00;99.90;;;;;;5005394;28;19979;-75
2022/06/03 02:26:09;;;;;;;;;;;10.10;99.90;;;;;;5006546;28;20020;-75
2022/06/03 02:28:50;;;;;;;;;;;10.00;99.90;;;;;;5020675;28;19929;-76
2022/06/03 02:31:27;;;;;;;;;;;10.00;99.90;;;;;;5024932;28;19968;-76
2022/06/03 02:33:58;;;;;;;;;;;10.00;99.90;;;;;;5023650;28;19951;-75
2022/06/03 02:36:43;;;;;;;;;;;9.90;99.90;;;;;;5007386;28;20292;-75
2022/06/03 02:39:11;;;;;;;;;;;9.90;99.90;;;;;;5024524;28;20394;-75
2022/06/03 02:41:40;;;;;;;;;;;9.90;99.90;;;;;;5007924;28;20876;-75
2022/06/03 02:44:07;;;;;;;;;;;9.90;99.90;;;;;;5021356;28;20290;-76
2022/06/03 02:46:35;;;;;;;;;;;9.80;99.90;;;;;;5023690;28;19986;-76
2022/06/03 02:49:07;;;;;;;;;;;9.80;99.90;;;;;;5005283;28;20333;-75
2022/06/03 02:51:39;;;;;;;;;;;9.80;99.90;;;;;;5024278;28;20437;-76
2022/06/03 02:54:10;;;;;;;;;;;9.70;99.90;;;;;;5024523;28;19936;-76
2022/06/03 02:57:11;;;;;;;;;;;9.70;99.90;;;;;;5025006;28;20030;-76
2022/06/03 02:59:49;;;;;;;;;;;9.70;99.90;;;;;;4955323;28;19937;-75
2022/06/03 03:02:14;;;;;;;;;;;9.70;99.90;;;;;;5018276;28;20497;-75
2022/06/03 03:04:58;;;;;;;;;;;9.60;99.90;;;;;;5028541;28;19928;-75
2022/06/03 03:07:43;;;;;;;;;;;9.60;99.90;;;;;;5029010;28;19928;-75
2022/06/03 03:10:08;;;;;;;;;;;9.70;99.90;;;;;;5027484;28;20863;-75
2022/06/03 03:12:46;;;;;;;;;;;9.70;99.90;;;;;;5013199;28;19928;-75
2022/06/03 03:15:18;;;;;;;;;;;9.60;99.90;;;;;;5027835;28;19933;-75
2022/06/03 03:18:02;;;;;;;;;;;9.60;99.90;;;;;;5028748;28;19929;-75
2022/06/03 03:20:36;;;;;;;;;;;9.60;99.90;;;;;;5030916;28;20514;-75
2022/06/03 03:23:05;;;;;;;;;;;9.60;99.90;;;;;;5028116;28;19971;-76
2022/06/03 03:25:36;;;;;;;;;;;9.60;99.90;;;;;;5026786;28;20394;-75
2022/06/03 03:28:02;;;;;;;;;;;9.70;99.90;;;;;;5027363;28;19937;-75
2022/06/03 03:30:28;;;;;;;;;;;9.60;99.90;;;;;;5029780;28;20003;-75
2022/06/03 03:32:56;;;;;;;;;;;9.80;99.90;;;;;;5029394;28;20662;-75
2022/06/03 03:35:25;;;;;;;;;;;9.70;99.90;;;;;;5026457;28;19936;-75
2022/06/03 03:37:50;;;;;;;;;;;9.70;99.90;;;;;;5029066;28;19948;-75
2022/06/03 03:40:35;;;;;;;;;;;9.70;99.90;;;;;;5010624;28;19929;-75
2022/06/03 03:43:00;;;;;;;;;;;9.70;99.90;;;;;;4995196;28;19929;-75
2022/06/03 03:45:45;;;;;;;;;;;9.70;99.90;;;;;;5010549;28;19928;-76
2022/06/03 03:48:29;;;;;;;;;;;9.70;99.90;;;;;;4995241;28;20402;-75
2022/06/03 03:51:03;;;;;;;;;;;9.60;99.90;;;;;;5010629;28;20849;-75
2022/06/03 03:53:51;;;;;;;;;;;9.60;99.90;;;;;;5025099;28;19929;-76
2022/06/03 03:56:17;;;;;;;;;;;9.70;99.90;;;;;;5008858;28;20638;-76
2022/06/03 03:59:21;;;;;;;;;;;9.80;99.90;;;;;;5008633;28;19929;-76
2022/06/03 04:02:05;;;;;;;;;;;9.70;99.90;;;;;;4927928;28;19946;-75
2022/06/03 04:04:34;;;;;;;;;;;9.80;99.90;;;;;;4926399;28;20371;-76
2022/06/03 04:06:59;;;;;;;;;;;9.80;99.90;;;;;;4985149;28;19930;-75
2022/06/03 04:09:43;;;;;;;;;;;9.90;99.90;;;;;;5027008;28;20720;-76
2022/06/03 04:12:15;;;;;;;;;;;9.90;99.90;;;;;;5008486;28;20020;-76
2022/06/03 04:14:54;;;;;;;;;;;9.90;99.90;;;;;;5026395;28;20247;-75
2022/06/03 04:17:35;;;;;;;;;;;10.00;99.90;;;;;;5025161;28;20393;-75
2022/06/03 04:20:00;;;;;;;;;;;10.10;99.90;;;;;;5025488;28;19929;-76
2022/06/03 04:22:26;;;;;;;;;;;10.20;99.90;;;;;;5026888;28;20428;-76
2022/06/03 04:24:58;;;;;;;;;;;10.20;99.90;;;;;;5026049;28;20828;-76
2022/06/03 04:27:54;;;;;;;;;;;10.30;99.90;;;;;;4976787;28;20758;-76
2022/06/03 04:30:22;;;;;;;;;;;10.30;99.90;;;;;;4977577;28;19944;-75
2022/06/03 04:33:07;;;;;;;;;;;10.40;99.90;;;;;;5008439;28;19929;-75
2022/06/03 04:35:51;;;;;;;;;;;10.40;99.90;;;;;;5009934;28;19932;-75
2022/06/03 04:38:38;;;;;;;;;;;10.70;99.90;;;;;;5026221;28;19936;-76
2022/06/03 04:41:23;;;;;;;;;;;10.80;99.90;;;;;;5025593;28;19929;-76
2022/06/03 04:44:07;;;;;;;;;;;10.80;99.90;;;;;;5024696;28;20498;-76
2022/06/03 04:46:45;;;;;;;;;;;12.00;99.90;;;;;;5025662;28;20019;-76
2022/06/03 04:49:29;;;;;;;;;;;14.50;99.90;;;;;;5007277;28;20382;-75
2022/06/03 04:52:07;;;;;;;;;;;15.10;99.90;;;;;;5008966;28;20356;-76
2022/06/03 04:54:51;;;;;;;;;;;16.50;99.90;;;;;;5008846;28;19939;-76
2022/06/03 04:57:36;;;;;;;;;;;16.10;99.90;;;;;;5024067;28;19929;-76
2022/06/03 05:00:04;;;;;;;;;;;17.60;99.90;;;;;;5027670;28;19933;-76
2022/06/03 05:02:49;;;;;;;;;;;17.80;99.90;;;;;;5009241;28;20419;-76
2022/06/03 05:05:34;;;;;;;;;;;18.10;99.90;;;;;;5003150;28;20041;-77
2022/06/03 05:08:03;;;;;;;;;;;18.20;99.90;;;;;;5001823;28;19952;-76
2022/06/03 05:10:38;;;;;;;;;;;18.20;99.90;;;;;;5016267;28;19929;-77
2022/06/03 05:13:16;;;;;;;;;;;19.30;99.90;;;;;;5011980;28;20301;-77
2022/06/03 05:15:57;;;;;;;;;;;19.00;99.90;;;;;;5011652;28;19924;-76
2022/06/03 05:18:42;;;;;;;;;;;18.60;99.90;;;;;;5014282;28;19928;-77
2022/06/03 05:21:27;;;;;;;;;;;18.60;99.90;;;;;;5014132;28;20668;-76
2022/06/03 05:23:55;;;;;;;;;;;18.90;99.90;;;;;;4973901;28;19933;-76
2022/06/03 05:26:24;;;;;;;;;;;17.00;99.90;;;;;;5002729;28;19951;-77
2022/06/03 05:29:02;;;;;;;;;;;19.40;99.90;;;;;;4981564;28;19951;-77
2022/06/03 05:31:40;;;;;;;;;;;18.90;99.90;;;;;;4998458;28;19935;-76
2022/06/03 05:34:12;;;;;;;;;;;18.90;99.90;;;;;;4998582;28;19933;-76
2022/06/03 05:36:50;;;;;;;;;;;19.00;99.90;;;;;;4978753;28;20055;-76
2022/06/03 05:39:44;;;;;;;;;;;18.20;99.90;;;;;;4981391;28;20083;-77
2022/06/03 05:42:28;;;;;;;;;;;18.20;99.90;;;;;;4989609;28;20756;-76
2022/06/03 05:45:13;;;;;;;;;;;18.60;99.90;;;;;;4987338;28;19928;-76
2022/06/03 05:47:51;;;;;;;;;;;17.80;99.90;;;;;;4979835;28;20667;-76
2022/06/03 05:50:26;;;;;;;;;;;17.10;99.90;;;;;;4999492;28;19955;-76
2022/06/03 05:53:14;;;;;;;;;;;17.00;99.90;;;;;;5015480;28;19988;-77
2022/06/03 05:55:52;;;;;;;;;;;17.00;99.90;;;;;;4989984;28;19932;-76
2022/06/03 05:58:17;;;;;;;;;;;16.10;99.90;;;;;;5004367;28;19935;-77
2022/06/03 06:00:43;;;;;;;;;;;15.80;99.90;;;;;;5025965;28;20309;-77
2022/06/03 06:03:21;;;;;;;;;;;15.70;99.90;;;;;;5006301;28;19936;-76
2022/06/03 06:05:50;;;;;;;;;;;15.40;99.90;;;;;;5024669;28;20462;-77
2022/06/03 06:08:25;;;;;;;;;;;15.70;99.90;;;;;;5007210;28;19928;-77
2022/06/03 06:11:06;;;;;;;;;;;16.30;99.90;;;;;;5006323;28;19933;-77
2022/06/03 06:13:45;;;;;;;;;;;15.70;99.90;;;;;;5010859;28;19940;-77
2022/06/03 06:16:14;;;;;;;;;;;15.90;99.90;;;;;;5009395;28;19933;-75
2022/06/03 06:18:46;;;;;;;;;;;16.50;99.90;;;;;;5027146;28;19929;-77
2022/06/03 06:21:31;;;;;;;;;;;16.60;99.90;;;;;;5026109;28;19928;-77
2022/06/03 06:23:57;;;;;;;;;;;16.30;99.90;;;;;;5025393;28;19975;-77
2022/06/03 06:26:22;;;;;;;;;;;16.80;99.90;;;;;;5003442;28;20023;-76
2022/06/03 06:29:03;;;;;;;;;;;16.70;99.90;;;;;;5024359;28;20091;-77
2022/06/03 06:31:47;;;;;;;;;;;16.90;99.90;;;;;;5024857;28;19940;-77
2022/06/03 06:34:13;;;;;;;;;;;17.30;99.90;;;;;;5030859;28;19929;-76
2022/06/03 06:36:42;;;;;;;;;;;17.20;99.90;;;;;;5013409;28;19925;-77
2022/06/03 06:39:20;;;;;;;;;;;17.60;99.90;;;;;;5032027;28;19929;-77
2022/06/03 06:42:04;;;;;;;;;;;17.80;99.90;;;;;;5029502;28;20266;-77
2022/06/03 06:44:53;;;;;;;;;;;17.30;99.90;;;;;;5030309;28;20023;-76
2022/06/03 06:47:32;;;;;;;;;;;17.90;99.90;;;;;;4984439;28;20051;-77
2022/06/03 06:50:13;;;;;;;;;;;17.20;99.90;;;;;;5010742;28;19935;-78
2022/06/03 06:52:52;;;;;;;;;;;17.70;99.90;;;;;;5027668;28;19940;-77
2022/06/03 06:55:41;;;;;;;;;;;17.60;99.90;;;;;;5028585;28;19941;-77
2022/06/03 06:58:21;;;;;;;;;;;16.90;99.90;;;;;;5028278;28;19939;-76
2022/06/03 07:00:49;;;;;;;;;;;17.40;99.90;;;;;;5028885;28;19968;-78
2022/06/03 07:03:34;;;;;;;;;;;17.80;99.90;;;;;;5011121;28;19929;-77
2022/06/03 07:06:03;;;;;;;;;;;17.30;99.90;;;;;;5009737;28;19929;-77
2022/06/03 07:08:36;;;;;;;;;;;17.10;99.90;;;;;;5010535;28;20371;-77
2022/06/03 07:11:22;;;;;;;;;;;17.30;99.90;;;;;;5013450;28;19940;-77
2022/06/03 07:13:55;;;;;;;;;;;17.70;99.90;;;;;;5014009;28;19929;-76
2022/06/03 07:19:49;;;;;;;;;;;17.90;99.90;;;;;;5031416;28;19968;-77
2022/06/03 07:22:27;;;;;;;;;;;18.60;99.90;;;;;;5012220;28;19929;-77
2022/06/03 07:24:52;;;;;;;;;;;17.80;99.90;;;;;;5014564;28;19989;-76
2022/06/03 07:27:41;;;;;;;;;;;17.80;99.90;;;;;;5028687;28;19928;-76
2022/06/03 07:30:15;;;;;;;;;;;17.70;99.90;;;;;;5018319;28;20500;-77
2022/06/03 07:32:49;;;;;;;;;;;17.70;99.90;;;;;;5030230;28;19929;-77
2022/06/03 07:35:22;;;;;;;;;;;17.70;99.90;;;;;;5028704;28;21320;-77
2022/06/03 07:37:55;;;;;;;;;;;18.60;99.90;;;;;;5012334;28;19994;-78
2022/06/03 07:40:40;;;;;;;;;;;18.80;99.90;;;;;;5029858;28;19929;-77
2022/06/03 07:43:17;;;;;;;;;;;18.90;99.90;;;;;;5028539;28;20047;-78
2022/06/03 07:45:45;;;;;;;;;;;19.00;99.90;;;;;;5029611;28;19982;-77
2022/06/03 07:48:12;;;;;;;;;;;19.20;99.90;;;;;;5012303;28;19933;-77
2022/06/03 07:50:44;;;;;;;;;;;19.80;99.90;;;;;;5013820;28;20444;-76
2022/06/03 07:53:14;;;;;;;;;;;19.80;99.90;;;;;;5011485;28;20495;-77
2022/06/03 07:55:40;;;;;;;;;;;19.80;99.90;;;;;;5029691;28;19929;-77
2022/06/03 07:58:07;;;;;;;;;;;19.90;99.90;;;;;;5030197;28;20385;-77
2022/06/03 08:00:34;;;;;;;;;;;19.80;99.90;;;;;;5011379;28;19940;-77
2022/06/03 08:03:01;;;;;;;;;;;20.50;99.90;;;;;;5028729;28;19929;-77
2022/06/03 08:05:27;;;;;;;;;;;20.60;99.90;;;;;;5022602;28;20600;-77
2022/06/03 08:10:59;;;;;;;;;;;21.20;99.90;;;;;;5002174;28;19968;-78
2022/06/03 08:13:24;;;;;;;;;;;20.10;99.90;;;;;;5029405;28;19928;-77
2022/06/03 08:16:05;;;;;;;;;;;21.00;99.90;;;;;;5029402;28;19936;-78
2022/06/03 08:18:35;;;;;;;;;;;20.80;99.90;;;;;;5010345;28;20385;-78
2022/06/03 08:21:04;;;;;;;;;;;20.60;99.90;;;;;;5028349;28;20337;-79
2022/06/03 08:23:33;;;;;;;;;;;20.20;99.90;;;;;;5010611;28;19972;-78
2022/06/03 08:26:00;;;;;;;;;;;20.10;99.90;;;;;;4985016;28;19979;-77
2022/06/03 08:28:30;;;;;;;;;;;19.80;99.90;;;;;;5026942;28;19928;-78
2022/06/03 08:30:57;;;;;;;;;;;20.50;99.90;;;;;;5000379;28;19935;-79
2022/06/03 08:33:43;;;;;;;;;;;20.50;99.90;;;;;;5027936;28;19983;-78
2022/06/03 08:36:16;;;;;;;;;;;21.10;99.90;;;;;;5010602;28;20031;-77
2022/06/03 08:38:47;;;;;;;;;;;20.30;99.90;;;;;;5029096;28;19928;-77
2022/06/03 08:41:15;;;;;;;;;;;20.00;99.90;;;;;;5011241;28;19933;-77
2022/06/03 08:43:56;;;;;;;;;;;20.10;99.90;;;;;;4992861;28;19952;-77
2022/06/03 08:46:34;;;;;;;;;;;19.40;99.90;;;;;;5019420;28;19933;-76
2022/06/03 08:49:01;;;;;;;;;;;19.40;99.90;;;;;;5009913;28;19929;-78
2022/06/03 08:51:32;;;;;;;;;;;20.70;99.90;;;;;;5030695;28;19936;-78
2022/06/03 08:54:01;;;;;;;;;;;20.50;99.90;;;;;;5026533;28;19929;-77
2022/06/03 08:56:31;;;;;;;;;;;20.80;99.90;;;;;;5029383;28;19928;-77
2022/06/03 08:58:57;;;;;;;;;;;20.50;99.90;;;;;;5030158;28;19959;-77
2022/06/03 09:01:29;;;;;;;;;;;20.90;99.90;;;;;;5029279;28;19940;-78
2022/06/03 09:04:10;;;;;;;;;;;20.80;99.90;;;;;;5030448;28;20067;-79
2022/06/03 09:06:54;;;;;;;;;;;21.80;99.90;;;;;;5028799;28;19960;-79
2022/06/03 09:09:32;;;;;;;;;;;21.20;99.90;;;;;;5010110;28;20031;-78
2022/06/03 09:12:24;;;;;;;;;;;20.30;99.90;;;;;;5012829;28;19956;-77
2022/06/03 09:14:50;;;;;;;;;;;20.30;99.90;;;;;;5025186;28;19929;-78
2022/06/03 09:17:37;;;;;;;;;;;20.40;99.90;;;;;;5030232;28;19936;-79
2022/06/03 09:20:07;;;;;;;;;;;20.30;99.90;;;;;;5028674;28;19971;-77
2022/06/03 09:22:33;;;;;;;;;;;20.10;99.90;;;;;;5028391;28;19986;-79
2022/06/03 09:25:00;;;;;;;;;;;20.60;99.90;;;;;;5028774;28;19937;-77
2022/06/03 09:27:27;;;;;;;;;;;20.90;99.90;;;;;;5021862;28;19948;-79
2022/06/03 09:29:55;;;;;;;;;;;21.40;99.90;;;;;;5007804;28;20012;-79
2022/06/03 09:32:21;;;;;;;;;;;21.20;99.90;;;;;;4991933;28;19936;-78
2022/06/03 09:34:48;;;;;;;;;;;22.00;99.90;;;;;;5008492;28;19929;-78
2022/06/03 09:37:29;;;;;;;;;;;21.40;99.90;;;;;;5009026;28;20895;-77
2022/06/03 09:39:57;;;;;;;;;;;21.60;99.90;;;;;;5009596;28;19956;-78
2022/06/03 09:42:24;;;;;;;;;;;21.30;99.90;;;;;;4990466;28;19964;-79
2022/06/03 09:44:50;;;;;;;;;;;21.70;99.90;;;;;;5008664;28;19929;-79
2022/06/03 09:47:18;;;;;;;;;;;21.50;99.90;;;;;;5008869;28;19956;-78
2022/06/03 09:49:45;;;;;;;;;;;21.00;99.90;;;;;;4990068;28;19937;-79
2022/06/03 09:52:12;;;;;;;;;;;20.60;99.60;;;;;;5008656;28;19956;-78
2022/06/03 09:54:39;;;;;;;;;;;21.60;99.90;;;;;;5006232;28;19929;-78
2022/06/03 09:57:23;;;;;;;;;;;20.90;99.90;;;;;;4991148;28;19929;-78
2022/06/03 09:59:57;;;;;;;;;;;21.80;99.90;;;;;;4981425;28;19933;-78
2022/06/03 10:02:24;;;;;;;;;;;21.60;99.90;;;;;;5006770;28;20442;-79
2022/06/03 10:04:56;;;;;;;;;;;22.50;99.90;;;;;;4979582;28;19991;-78
2022/06/03 10:07:25;;;;;;;;;;;22.40;99.90;;;;;;4991521;28;19936;-80
2022/06/03 10:12:49;;;;;;;;;;;22.40;96.20;;;;;;5011822;28;19929;-79
2022/06/03 10:18:04;;;;;;;;;;;22.60;99.70;;;;;;4994299;28;19929;-77
2022/06/03 10:20:30;;;;;;;;;;;22.60;98.90;;;;;;5011149;28;20426;-79
2022/06/03 10:22:55;;;;;;;;;;;22.10;97.10;;;;;;4981180;28;19925;-77
2022/06/03 10:25:21;;;;;;;;;;;22.90;97.30;;;;;;5011431;28;19929;-79
2022/06/03 10:27:47;;;;;;;;;;;22.90;95.90;;;;;;5019943;28;21157;-78
2022/06/03 10:30:13;;;;;;;;;;;22.70;94.70;;;;;;5030404;28;19932;-79
2022/06/03 10:32:39;;;;;;;;;;;23.00;98.30;;;;;;5013352;28;19951;-79
2022/06/03 10:35:13;;;;;;;;;;;22.50;96.50;;;;;;5013708;28;19928;-78
2022/06/03 10:37:49;;;;;;;;;;;22.60;94.80;;;;;;5030239;28;19980;-79
2022/06/03 10:40:15;;;;;;;;;;;22.90;96.10;;;;;;5030584;28;20759;-78
2022/06/03 10:42:44;;;;;;;;;;;23.30;97.90;;;;;;5028902;28;20751;-78
2022/06/03 10:45:10;;;;;;;;;;;22.90;95.50;;;;;;5012933;28;20319;-78
2022/06/03 10:47:38;;;;;;;;;;;23.00;96.00;;;;;;5011996;28;21565;-79
2022/06/03 10:50:06;;;;;;;;;;;23.10;97.20;;;;;;5012973;28;20466;-78
2022/06/03 11:01:12;;;;;;;;;;;22.80;93.80;;;;;;5031024;28;20030;-78
2022/06/03 11:03:43;;;;;;;;;;;21.90;91.30;;;;;;5015933;28;19994;-77
2022/06/03 11:06:11;;;;;;;;;;;22.00;90.60;;;;;;5031141;28;20068;-77
2022/06/03 11:08:46;;;;;;;;;;;21.90;92.80;;;;;;5030512;28;19929;-77
2022/06/03 11:11:12;;;;;;;;;;;22.60;93.30;;;;;;5030867;28;19932;-77
2022/06/03 11:13:41;;;;;;;;;;;23.00;91.60;;;;;;5029351;28;20015;-78
2022/06/03 11:16:15;;;;;;;;;;;22.70;94.60;;;;;;5030429;28;19936;-79
2022/06/03 11:18:41;;;;;;;;;;;22.20;92.30;;;;;;5011477;28;20032;-79
2022/06/03 11:21:16;;;;;;;;;;;22.80;92.50;;;;;;5014065;28;19928;-79
2022/06/03 11:23:42;;;;;;;;;;;23.30;94.40;;;;;;5031377;28;19932;-79
2022/06/03 11:26:08;;;;;;;;;;;23.70;95.20;;;;;;5013752;28;19933;-79
2022/06/03 11:28:38;;;;;;;;;;;24.30;93.20;;;;;;5028303;28;19951;-80
2022/06/03 11:31:06;;;;;;;;;;;24.30;92.30;;;;;;5030483;28;20021;-80
2022/06/03 11:33:38;;;;;;;;;;;24.60;95.30;;;;;;5010808;28;19929;-79
2022/06/03 11:36:07;;;;;;;;;;;24.30;93.00;;;;;;5013558;28;19928;-79
2022/06/03 11:38:35;;;;;;;;;;;24.10;91.00;;;;;;5029792;28;19976;-78
2022/06/03 11:41:03;;;;;;;;;;;24.00;90.70;;;;;;5030689;28;19983;-79
2022/06/03 11:43:28;;;;;;;;;;;23.50;89.20;;;;;;5010866;28;19929;-80
2022/06/03 11:45:59;;;;;;;;;;;23.60;83.30;;;;;;5013547;28;19977;-79
2022/06/03 11:48:27;;;;;;;;;;;24.00;91.30;;;;;;5012022;28;20222;-79
2022/06/03 11:50:53;;;;;;;;;;;22.90;80.60;;;;;;5012045;28;19975;-77
2022/06/03 11:53:22;;;;;;;;;;;23.70;90.90;;;;;;5011501;28;20020;-80
2022/06/03 11:55:48;;;;;;;;;;;24.10;91.30;;;;;;5012609;28;19986;-76
2022/06/03 11:58:18;;;;;;;;;;;22.90;84.20;;;;;;5009317;28;20348;-79
2022/06/03 12:00:46;;;;;;;;;;;22.20;80.30;;;;;;5028090;28;20011;-78
2022/06/03 12:03:15;;;;;;;;;;;22.50;90.10;;;;;;5011637;28;19935;-79
2022/06/03 12:05:44;;;;;;;;;;;23.10;87.60;;;;;;5028868;28;19933;-80
2022/06/03 12:08:10;;;;;;;;;;;23.30;86.30;;;;;;5029409;28;20691;-77
2022/06/03 12:10:42;;;;;;;;;;;23.50;85.80;;;;;;5028868;28;19936;-76
2022/06/03 12:13:17;;;;;;;;;;;23.60;87.10;;;;;;5010310;28;20608;-78
2022/06/03 12:15:52;;;;;;;;;;;23.40;84.80;;;;;;4997577;28;19932;-78
2022/06/03 12:18:39;;;;;;;;;;;23.60;87.30;;;;;;5028641;28;19974;-78
2022/06/03 12:21:10;;;;;;;;;;;24.00;91.30;;;;;;5030324;28;20037;-77
2022/06/03 12:23:35;;;;;;;;;;;24.10;91.30;;;;;;5010779;28;19936;-78
2022/06/03 12:26:06;;;;;;;;;;;23.80;89.70;;;;;;5029545;28;19928;-78
2022/06/03 12:28:39;;;;;;;;;;;24.30;86.40;;;;;;5009773;28;20039;-79
2022/06/03 12:31:04;;;;;;;;;;;24.80;89.40;;;;;;5011095;28;19933;-78
2022/06/03 12:33:30;;;;;;;;;;;24.20;78.60;;;;;;5028617;28;20489;-78
2022/06/03 12:35:57;;;;;;;;;;;23.90;82.30;;;;;;5030088;28;19936;-79
2022/06/03 12:38:23;;;;;;;;;;;24.00;80.80;;;;;;5010685;28;20755;-79
2022/06/03 12:40:48;;;;;;;;;;;24.60;81.70;;;;;;5027287;28;19928;-78
2022/06/03 12:43:21;;;;;;;;;;;24.40;84.30;;;;;;5010068;28;20008;-77
2022/06/03 12:45:58;;;;;;;;;;;23.70;83.80;;;;;;5028949;28;19936;-79
2022/06/03 12:48:35;;;;;;;;;;;23.40;80.30;;;;;;5009581;28;19929;-77
2022/06/03 12:51:20;;;;;;;;;;;23.60;78.90;;;;;;5029437;28;20481;-84
2022/06/03 12:53:46;;;;;;;;;;;24.20;80.70;;;;;;5009135;28;20405;-79
2022/06/03 12:56:23;;;;;;;;;;;24.40;78.60;;;;;;5028035;28;19929;-78
2022/06/03 12:58:59;;;;;;;;;;;24.50;81.50;;;;;;5027591;28;20140;-78
2022/06/03 13:01:29;;;;;;;;;;;25.10;78.70;;;;;;5013349;28;21135;-77
2022/06/03 13:03:54;;;;;;;;;;;24.30;77.60;;;;;;5012370;28;19925;-78
2022/06/03 13:06:26;;;;;;;;;;;24.80;85.40;;;;;;5028522;28;20393;-81
2022/06/03 13:11:43;;;;;;;;;;;24.60;77.30;;;;;;5028162;28;19929;-79
2022/06/03 13:14:17;;;;;;;;;;;24.80;82.20;;;;;;5027239;28;19929;-79
2022/06/03 13:16:44;;;;;;;;;;;24.10;76.30;;;;;;5028507;28;19959;-78
2022/06/03 13:19:17;;;;;;;;;;;24.00;82.00;;;;;;5004589;28;19929;-78
2022/06/03 13:21:49;;;;;;;;;;;24.00;84.50;;;;;;5010968;28;19935;-78
2022/06/03 13:24:22;;;;;;;;;;;23.90;75.20;;;;;;4984834;28;19940;-77
2022/06/03 13:26:50;;;;;;;;;;;24.50;81.70;;;;;;5027422;28;20272;-79
2022/06/03 13:29:36;;;;;;;;;;;23.40;76.40;;;;;;5010212;28;19978;-76
2022/06/03 13:32:02;;;;;;;;;;;24.10;83.70;;;;;;5027853;28;19976;-78
2022/06/03 13:34:39;;;;;;;;;;;24.20;77.00;;;;;;5028876;28;20354;-77
2022/06/03 13:37:23;;;;;;;;;;;24.30;81.10;;;;;;5029635;28;19972;-79
2022/06/03 13:39:49;;;;;;;;;;;24.40;80.60;;;;;;5026144;28;20517;-77
2022/06/03 13:44:59;;;;;;;;;;;24.00;77.90;;;;;;5026962;28;19928;-78
2022/06/03 13:47:26;;;;;;;;;;;24.20;83.20;;;;;;5027513;28;20361;-78
2022/06/03 13:50:04;;;;;;;;;;;24.60;84.20;;;;;;5027905;28;20023;-78
2022/06/03 13:52:34;;;;;;;;;;;24.20;73.90;;;;;;5026649;28;20133;-77
2022/06/03 13:55:20;;;;;;;;;;;24.60;80.50;;;;;;5010151;28;20394;-78
2022/06/03 13:57:54;;;;;;;;;;;24.90;80.50;;;;;;5007713;28;20466;-79
2022/06/03 14:00:22;;;;;;;;;;;24.30;73.70;;;;;;5000906;28;19964;-79
2022/06/03 14:02:50;;;;;;;;;;;24.10;79.30;;;;;;5026770;28;19928;-78
2022/06/03 14:05:27;;;;;;;;;;;24.80;82.10;;;;;;5005915;28;19929;-79
2022/06/03 14:07:58;;;;;;;;;;;24.80;81.40;;;;;;5007548;28;20039;-78
2022/06/03 14:10:25;;;;;;;;;;;25.10;82.20;;;;;;4993088;28;19929;-78
2022/06/03 14:13:02;;;;;;;;;;;25.30;83.60;;;;;;5011642;28;19929;-79
2022/06/03 14:15:38;;;;;;;;;;;24.80;78.50;;;;;;5010956;28;19964;-78
2022/06/03 14:18:03;;;;;;;;;;;24.50;72.90;;;;;;5007646;28;19994;-79
2022/06/03 14:20:31;;;;;;;;;;;24.40;79.00;;;;;;5000785;28;20449;-78
2022/06/03 14:23:08;;;;;;;;;;;24.90;82.90;;;;;;5001647;28;20067;-78
2022/06/03 14:25:39;;;;;;;;;;;24.70;79.90;;;;;;4992135;28;19943;-78
2022/06/03 14:28:05;;;;;;;;;;;24.60;77.80;;;;;;5003260;28;19982;-78
2022/06/03 14:30:51;;;;;;;;;;;25.30;87.30;;;;;;4986858;28;19929;-78
2022/06/03 14:33:17;;;;;;;;;;;24.80;77.30;;;;;;4985193;28;20023;-78
2022/06/03 14:35:46;;;;;;;;;;;25.20;80.60;;;;;;4997457;28;19933;-78
2022/06/03 14:38:17;;;;;;;;;;;24.70;76.20;;;;;;4968143;28;19959;-78
2022/06/03 14:40:44;;;;;;;;;;;25.20;85.90;;;;;;4984311;28;20038;-78
2022/06/03 14:43:12;;;;;;;;;;;25.10;84.90;;;;;;5001744;28;20521;-79
2022/06/03 14:45:43;;;;;;;;;;;25.50;87.00;;;;;;4997996;28;19925;-78
2022/06/03 14:48:11;;;;;;;;;;;24.90;80.90;;;;;;5006207;28;19935;-77
2022/06/03 14:50:40;;;;;;;;;;;24.60;73.70;;;;;;5004542;28;19991;-78
2022/06/03 14:53:24;;;;;;;;;;;24.60;73.10;;;;;;4993498;28;21891;-79
2022/06/03 14:55:56;;;;;;;;;;;24.80;75.10;;;;;;5027544;28;20863;-79
2022/06/03 14:58:42;;;;;;;;;;;25.00;80.70;;;;;;5026101;28;19933;-77
2022/06/03 15:01:26;;;;;;;;;;;25.40;83.30;;;;;;5009380;28;19975;-79
2022/06/03 15:03:58;;;;;;;;;;;24.90;81.70;;;;;;5008516;28;20426;-77
2022/06/03 15:06:51;;;;;;;;;;;24.80;75.40;;;;;;5024447;28;20382;-78
2022/06/03 15:09:24;;;;;;;;;;;24.00;75.50;;;;;;5021527;28;19939;-78
2022/06/03 15:11:52;;;;;;;;;;;24.20;76.70;;;;;;5024381;28;20068;-80
2022/06/03 15:14:20;;;;;;;;;;;24.50;80.30;;;;;;5025835;28;20145;-81
2022/06/03 15:16:54;;;;;;;;;;;24.70;82.00;;;;;;5023553;28;20409;-79
2022/06/03 15:19:32;;;;;;;;;;;24.20;77.90;;;;;;4969055;28;19995;-78
2022/06/03 15:21:58;;;;;;;;;;;23.60;79.70;;;;;;5005380;28;19928;-78
2022/06/03 15:24:24;;;;;;;;;;;23.80;80.10;;;;;;4977780;28;19982;-79